Atlantic Osprey — CFH8950 — position and weather

sailwx.info

Track history (hours):
 
Tides and Currents Weather Stations Pressure Air Temp Water Temp Dewpoint Dewpoint Depression Visibility Wind Speed Wind Dir Waves Ship Positions

Atlantic Osprey

Last reported at 2016-Apr-26 03:27 UTC. Time now 2016-May-01 11:47 UTC.
Position N 47°28' W 052°03'.

Length 3 m; draft 6.4 m.

Type: Tug. MMSI: 316004850.

Date/timePositionNaut miles runAvg speedWind from/ knotsBaromVisibWave heightAir tempDewpointWater temp
2016-Apr-26 03:27N 47°28' W 052°03'1010.4
2016-Apr-26 02:29N 47°30' W 052°18'1010.6
2016-Apr-26 01:32N 47°33' W 052°32'5 5.1
2016-Apr-26 00:32N 47°33' W 052°40'2 1.5
2016-Apr-25 23:29N 47°34' W 052°42'0 0.0
2016-Apr-25 22:32N 47°34' W 052°42'0 0.0
2016-Apr-25 21:26N 47°34' W 052°42'0 0.0
2016-Apr-25 20:33N 47°34' W 052°42'0 0.4
2016-Apr-25 19:28N 47°34' W 052°42'0 0.0
2016-Apr-25 18:29N 47°34' W 052°42'0 0.0
2016-Apr-25 17:29N 47°34' W 052°42'0 0.0
2016-Apr-25 16:30N 47°34' W 052°42'0 0.0
2016-Apr-25 15:25N 47°34' W 052°42'0 0.0
2016-Apr-25 14:31N 47°34' W 052°42'0 0.0
2016-Apr-25 13:32N 47°34' W 052°42'0 0.0
2016-Apr-25 12:33N 47°34' W 052°42'0 0.0
2016-Apr-25 11:33N 47°34' W 052°42'0 0.0
2016-Apr-25 10:28N 47°34' W 052°42'1 0.8
2016-Apr-25 09:29N 47°34' W 052°41'10 9.7
2016-Apr-25 08:29N 47°32' W 052°27'10 9.7
2016-Apr-25 07:29N 47°30' W 052°13'  
Track history (hours):
 
Tides and Currents Weather Stations Pressure Air Temp Water Temp Dewpoint Dewpoint Depression Visibility Wind Speed Wind Dir Waves Ship Positions

Atlantic Osprey

Last reported at 2016-Apr-26 03:27 UTC. Time now 2016-May-01 11:47 UTC.
Position N 47°28' W 052°03'.

Length 3 m; draft 6.4 m.

Type: Tug. MMSI: 316004850.

Date/timePositionNaut miles runAvg speedWind from/ knotsBaromVisibWave heightAir tempDewpointWater temp
2016-Apr-26 03:27N 47°28' W 052°03'1010.4
2016-Apr-26 02:29N 47°30' W 052°18'1010.6
2016-Apr-26 01:32N 47°33' W 052°32'5 5.1
2016-Apr-26 00:32N 47°33' W 052°40'2 1.5
2016-Apr-25 23:29N 47°34' W 052°42'0 0.0
2016-Apr-25 22:32N 47°34' W 052°42'0 0.0
2016-Apr-25 21:26N 47°34' W 052°42'0 0.0
2016-Apr-25 20:33N 47°34' W 052°42'0 0.4
2016-Apr-25 19:28N 47°34' W 052°42'0 0.0
2016-Apr-25 18:29N 47°34' W 052°42'0 0.0
2016-Apr-25 17:29N 47°34' W 052°42'0 0.0
2016-Apr-25 16:30N 47°34' W 052°42'0 0.0
2016-Apr-25 15:25N 47°34' W 052°42'0 0.0
2016-Apr-25 14:31N 47°34' W 052°42'0 0.0
2016-Apr-25 13:32N 47°34' W 052°42'0 0.0
2016-Apr-25 12:33N 47°34' W 052°42'0 0.0
2016-Apr-25 11:33N 47°34' W 052°42'0 0.0
2016-Apr-25 10:28N 47°34' W 052°42'1 0.8
2016-Apr-25 09:29N 47°34' W 052°41'10 9.7
2016-Apr-25 08:29N 47°32' W 052°27'10 9.7
2016-Apr-25 07:29N 47°30' W 052°13'  

Dump ship's entire track history